ADDS METAR Data INFO
IDs: Format: Raw Decoded Include TAF

Data at: 1212 UTC 24 Mar 2017

METAR for:LFOK (Chalons-Vatry(AFB), --, FR)
Text:LFOK 241200Z AUTO 06016KT 8000 BKN016 OVC025 11/07 Q1023 NOSIG
Temperature: 11.0°C ( 52°F)
Dewpoint: 7.0°C ( 45°F) [RH = 76%]
Pressure (altimeter):30.21 inches Hg (1023.0 mb)
Winds:from the ENE (60 degrees) at 18 MPH (16 knots; 8.2 m/s)
Visibility: 5 sm ( 8 km)
Ceiling:1600 feet AGL
Clouds: broken clouds at 1600 feet AGL, overcast cloud deck at 2500 feet AGL

TAF for:LFOK (Chalons-Vatry(AFB), --, FR) issued at 1100 UTC 24 Mar 2017
Text:TAF LFOK 241100Z 2412/2512 06012KT 9999 BKN020
Forecast period:1200 UTC 24 March 2017 to 1200 UTC 25 March 2017
Forecast type:FROM: standard forecast or significant change
Winds:from the ENE (60 degrees) at 14 MPH (12 knots; 6.2 m/s)
Visibility:6 or more sm (10+ km)
Ceiling:2000 feet AGL
Clouds: broken clouds at 2000 feet AGL


Page loaded:  12:12 UTC  |   05:12 AM Pacific  |   06:12 AM Mountain  |   07:12 AM Central  |   08:12 AM Eastern

 

ADVISORIES

FORECASTS

FORECASTS

OBSERVATIONS

USER TOOLS

ABOUT US